• Back
  •  
  • Position of Reservoir Gates
S.No.
No. of opened gates
Position of opening (In m)
Reporting Date
Reporting Time
Discharge in Cumecs
Discharge in Cusecs
Actual date and time of Gate opening
1
2
3
4
5
6
7
8
1 1 1 04/10/2021 8:00:00 AM 106 3743.39 4.10.218am
2 1 0.6 05/10/2021 12:00:00 PM 65 2295.47 05/10/2021
3 1 0.6 06/10/2021 8:00:00 AM 65 2295.47 6.10.21 8am
4 1 0.3 07/10/2021 8:00:00 AM 33 1165.39 07/10/2021
5 1 0.3 08/10/2021 12:00:00 PM 33 1165.39 8.10.21 12pm
6 1 0.3 09/10/2021 8:00:00 AM 33 1165.39
7 2 1 22/08/2020 12:00:00 PM 185 6533.27
8 4 1.5 22/08/2020 1:00:00 PM 468 16527.42
9 9 2.83 22/08/2020 3:00:00 PM 2737 96657.15
10 9 3.6 22/08/2020 8:00:00 PM 4200 148323
11 1 1 09/10/2021 4:00:00 PM 106 3743.39
12 1 1 10/10/2021 8:00:00 AM 106 3743.39
13 8 3.6 23/08/2020 8:00:00 AM 4200 148323
14 8 3.2 23/08/2020 12:00:00 PM 3300 116539.5
15 8 3.2 23/08/2020 8:00:00 PM 2648 93514.12
16 8 3.2 24/08/2020 8:00:00 AM 3300 116539.5 Gate opened on Dated 23/08/2020 at 12.00PM
17 4 2 24/08/2020 8:00:00 AM 603 21294.94
18 2 0.3 24/08/2020 3:00:00 PM 48 1695.12
19 1 0.3 25/08/2020 8:00:00 AM 27 953.5
20 1 1 09/10/2021 8:00:00 PM 106 3743.39
21 1 1 11/10/2021 8:00:00 AM 106 3743.39 11.10.21 8am
22 0 0 12/10/2021 12:00:00 PM 0 0 12.10.21 12pm
23 2 2 19/10/2021 8:00:00 AM 368 12995.92 19.10.21 8am
24 1 0.3 26/08/2020 12:00:00 AM 27 953.5
25 1 0.5 26/08/2020 12:00:00 AM 44 1553.86
26 1 0.5 27/08/2020 12:00:00 AM 44 1553.86
27 1 0.7 27/08/2020 8:00:00 AM 67 2366.11
28 1 0.7 28/08/2020 12:00:00 AM 67 2366.11
29 2 1 28/08/2020 1:00:00 PM 158 5579.77
30 2 0.5 28/08/2020 8:00:00 PM 90 3178.35
31 2 0.5 29/08/2020 12:00:00 AM 90 3178.35 Actual Date of Gate Opening 28.08.2020 & Time 8.00 PM
32 6 2 29/08/2020 4:30:00 PM 990 34961.85
33 7 2 30/08/2020 12:00:00 AM 1415 49970.72 Gates opened on dated 29.08.2020 at 7.00PM
34 8 2.87 30/08/2020 8:00:00 AM 1635 57740.02
35 9 3.77 30/08/2020 12:00:00 PM 2037 71936.65
36 10 3.7 30/08/2020 4:00:00 PM 3230 114067.45
37 10 3.7 31/08/2020 12:00:00 AM 3230 114067.45 Gates Opened on Dated 30.08.2020 at 4.00 PM
38 2 0.5 01/09/2020 12:00:00 AM 86 3037.09 31/08/2020 12.00PM
39 2 0.5 02/09/2020 12:00:00 AM 86 3037.09 01/09/2020 12.00PM
40 1 0.75 02/09/2020 3:30:00 PM 79 2789.88
41 1 1.2 03/09/2020 12:00:00 AM 113 3990.59
42 2 1.2 04/09/2020 12:00:00 AM 226 7981.19
43 1 0.5 06/09/2020 12:00:00 AM 53 1871.69 05/09/2020 8.00PM
44 1 0.5 06/09/2020 4:00:00 PM 53 1871.69
45 1 0.2 07/09/2020 12:00:00 AM 22 776.93
46 1 0.2 08/09/2020 12:00:00 AM 22 776.93
47 1 0.2 10/09/2020 12:00:00 AM 23 812.24
48 2 1 11/09/2020 8:00:00 AM 223 7875.24
49 2 1 12/09/2020 8:00:00 AM 215 7592.72
50 2 1 12/09/2020 12:00:00 AM 215 7592.72
51 1 0.3 12/09/2020 4:00:00 PM 32 1130.08
52 1 0.3 12/09/2020 8:00:00 PM 32 1130.08
53 1 0.3 13/09/2020 8:00:00 AM 32 1130.08
54 1 0.3 13/09/2020 4:00:00 PM 32 1130.08
55 1 0.3 13/09/2020 8:00:00 PM 32 1130.08
56 1 0.3 14/09/2020 12:00:00 PM 32 1130.08
57 2 1.5 15/09/2020 4:00:00 PM 324 11442.06
58 2 1 15/09/2020 12:00:00 PM 223 7875.24
59 2 2 15/09/2020 8:00:00 PM 424 14973.56
60 1 0.5 16/09/2020 12:00:00 PM 55 1942.32
61 1 0.5 17/09/2020 8:00:00 AM 55 1942.32
62 1 0.5 18/09/2020 12:00:00 AM 55 1942.32
63 1 1 18/09/2020 12:00:00 PM 111 3919.96
64 1 1 19/09/2020 8:00:00 AM 111 3919.96
65 1 1 20/09/2020 12:00:00 AM 111 3919.96
66 1 1 20/09/2020 8:00:00 AM 111 3919.96
67 1 1 21/09/2020 8:00:00 AM 111 3919.96
68 1 1 22/09/2020 8:00:00 AM 111 3919.96
69 1 1 22/09/2020 8:00:00 PM 111 3919.96
70 1 1 23/09/2020 12:00:00 AM 111 3919.96
71 1 2 23/09/2020 12:00:00 PM 209 7380.83
72 2 2 23/09/2020 4:00:00 PM 418 14761.67
73 4 0.2 23/09/2020 8:00:00 PM 836 29523.34
74 4 2 24/09/2020 12:00:00 AM 836 29523.34
75 2 1.5 24/09/2020 4:00:00 PM 320 11300.8
76 2 1 24/09/2020 8:00:00 PM 223 7875.24
77 2 1 25/09/2020 12:00:00 AM 223 7875.24
78 2 1 25/09/2020 8:00:00 PM 223 7875.24
79 2 1 26/09/2020 12:00:00 AM 223 7875.24
80 2 1 27/09/2020 12:00:00 AM 223 7875.24
81 1 1 27/09/2020 8:00:00 AM 108 3814.02
82 1 1 28/09/2020 12:00:00 AM 108 3814.02
83 1 0.8 28/09/2020 12:00:00 PM 85 3001.77
84 1 0.5 29/09/2020 12:00:00 AM 56 1977.64
85 1 0.3 29/09/2020 12:00:00 PM 33 1165.39
86 1 0.3 30/09/2020 8:00:00 AM 33 1165.39
87 1 0.15 12/10/2020 12:00:00 PM 19 670.98
88 1 0.3 14/10/2020 12:00:00 PM 38 1341.97
89 1 0.5 15/10/2020 12:00:00 PM 60 2118.9
90 1 0.2 19/06/2021 8:00:00 AM 18 635.67
91 2 1 25/07/2021 8:00:00 AM 152 5367.88 24/07/2021
92 2 1 25/07/2021 8:00:00 AM 278 9817.57 25/07/2021
93 2 2 25/07/2021 8:00:00 AM 278 9817.57 25/07/2021
94 4 2.5 25/07/2021 12:00:00 PM 684 24155.46 25/07/2021
95 10 3 25/07/2021 8:00:00 AM 2230 78752.45 25/07/2021
96 5 1.6 26/07/2021 8:00:00 AM 467 16492.1 25/07/2021
97 5 1.6 27/07/2021 8:00:00 AM 467 16492.1 26/07/2021
98 3 1 28/07/2021 8:00:00 AM 192 6780.48 28//07/2021
99 2 0.5 28/07/2021 12:00:00 PM 68 2401.42 28/07/2021
100 2 0.5 29/07/2021 8:00:00 AM 68 2401.42 29/07/2021
101 2 0.5 30/07/2021 8:00:00 AM 68 2401.42 29/08/2021
102 1 0.4 30/07/2021 12:00:00 PM 28 988.82 30/07/2021
103 1 0.4 30/07/2021 4:00:00 PM 28 988.82
104 2 0.5 02/08/2021 4:00:00 PM 87 3072.4 02/08/2021
105 2 1 02/08/2021 8:00:00 PM 169.2 5975.3 02-08-2021
106 2 2 03/08/2021 8:00:00 AM 301.5 10647.47 03/08/2021
107 2 1 04/08/2021 8:00:00 AM 166 5862.29 04/08/2021
108 2 1.5 05/08/2021 8:00:00 AM 235 8299.02 05/08/2021
109 3 2 05/08/2021 8:00:00 PM 452 15962.38
110 3 2 05/08/2021 8:00:00 PM 452 15962.38
111 6 3 06/08/2021 8:00:00 AM 1427 50394.5 06/08/2021
112 6 3 06/08/2021 12:00:00 PM 1784 63001.96 06/08/2021
113 7 3 06/08/2021 4:00:00 PM 1561 55126.71
114 6 3 06/08/2021 8:00:00 PM 1224 43225.56
115 4 1 07/08/2021 8:00:00 AM 332 11724.58 07/08/2021
116 2 1.5 07/08/2021 12:00:00 PM 220 7769.3 07/08/2021
117 1 1 08/08/2021 8:00:00 AM 81 2860.51 08/08/2021
118 1 0.5 08/08/2021 8:00:00 AM 44 1553.86 08/08/2021
119 3 2 09/08/2021 8:00:00 AM 483 17057.15 09/08/2021
120 3 1 09/08/2021 8:00:00 PM 252 8899.38
121 2 0.5 10/08/2021 8:00:00 AM 87 3072.4 10/08/2021
122 0 0 10/08/2021 12:00:00 PM 0 0
123 2 1 18/08/2021 8:30:00 PM 200 7063
124 2 1.5 19/08/2021 12:00:00 PM 283 9994.14 19/08/2021
125 2 0.5 20/08/2021 8:00:00 AM 100 3531.5
126 2 0.5 20/08/2021 8:00:00 AM 100 3531.5 20/08/2021
127 1 0.5 20/08/2021 12:00:00 PM 50 1765.75
128 1 0.5 21/08/2021 8:00:00 AM 50 1765.75
129 8 3 21/08/2021 12:00:00 PM 2232 78823.08 21/08/2021
130 2 0.6 23/08/2021 8:00:00 AM 121 4273.11 23/08/2021
131 2 0.6 24/08/2021 8:00:00 AM 121 4273.11 24/08/2021
132 2 0.06 24/08/2021 8:00:00 AM 121 4273.11
133 2 0.6 24/08/2021 12:00:00 PM 121 4273.11
134 2 0.6 25/08/2021 8:00:00 AM 62 2189.53 25/08/2021
135 2 0.3 25/08/2021 8:00:00 AM 62 2189.53 25/08/2021
136 1 0.3 25/08/2021 12:00:00 PM 31 1094.76 25/08/2021
137 1 0.3 26/08/2021 8:00:00 AM 31 1094.76 26/08/2021
138 1 0.3 26/08/2021 12:00:00 PM 31 1094.76 25.8.21 12.00 pm
139 1 0.3 26/08/2021 12:00:00 PM 31 1094.76 26.8.21 12.00 pm
140 1 0.3 27/08/2021 8:00:00 AM 31 1094.76 26/08/2021
141 1 0.3 27/08/2021 12:00:00 PM 31 1094.76 27.8.21 12.00pm
142 1 0.5 27/08/2021 8:00:00 PM 44.25 1562.69
143 1 0.5 28/08/2021 8:00:00 AM 44.25 1562.69 28/08/2021
144 1 0.5 28/08/2021 8:00:00 AM 44.25 1562.69
145 1 0.5 28/08/2021 12:00:00 PM 44.25 1562.69
146 1 0.5 29/08/2021 8:00:00 AM 44.25 1562.69
147 1 0.5 29/08/2021 12:00:00 PM 44.25 1562.69
148 2 0.5 30/08/2021 8:00:00 AM 88.5 3125.38
149 2 0.5 30/08/2021 12:00:00 PM 88.5 3125.38
150 2 0.5 31/08/2021 8:00:00 AM 88.5 3125.38 31/08/2021
151 2 1 31/08/2021 8:00:00 PM 200 7063
152 2 0.5 01/09/2021 8:00:00 AM 88.5 3125.38 01/09/2021
153 1 0.4 01/09/2021 12:00:00 PM 41 1447.91 01/09/2021
154 1 0.5 01/09/2021 8:00:00 PM 44.25 1562.69
155 1 0.5 02/09/2021 8:00:00 AM 44.25 1562.69 02/09/2021
156 1 0.5 03/09/2021 8:00:00 AM 44.25 1562.69 03/09/2021
157 1 1.5 03/09/2021 8:00:00 PM 146 5155.99
158 1 1 04/09/2021 8:00:00 AM 102 3602.13
159 1 1 04/09/2021 8:00:00 AM 102 3602.13
160 1 1 05/09/2021 8:00:00 AM 102 3602.13 05/09/2021
161 1 0.5 06/09/2021 8:00:00 AM 51 1801.06 06/09/2021
162 1 0.5 06/09/2021 12:00:00 PM 51 1801.06 6-9-21 12.00 pm
163 1 0.5 07/09/2021 8:00:00 AM 52 1836.38 07/09/2021
164 1 0.5 07/09/2021 12:00:00 PM 52 1836.38 7-9-21 12.00 pm
165 1 0.5 08/09/2021 8:00:00 AM 52 1836.38 09/09/2021
166 1 0.5 08/09/2021 8:00:00 AM 52 1836.38 08/09/2021
167 1 2 09/09/2021 8:00:00 AM 193 6815.79 09/09/2021
168 2 2 09/09/2021 8:00:00 PM 386 13631.59
169 2 0.5 10/09/2021 8:00:00 AM 102 3602.13
170 1 0.5 10/09/2021 12:00:00 PM 50.65 1788.7
171 1 0.5 11/09/2021 8:00:00 AM 52 1836.38
172 1 0.5 11/09/2021 8:00:00 AM 52 1836.38
173 1 0.5 12/09/2021 8:00:00 AM 53 1871.69
174 1 0.5 13/09/2021 8:00:00 AM 55 1942.32 13.9.21 8am
175 1 0.5 13/09/2021 8:00:00 AM 54 1907.01 13.9.21 8am
176 1 0.1 14/09/2021 8:00:00 AM 106 3743.39 14.9.21 8 am
177 1 1 14/09/2021 8:00:00 AM 106 3743.39 14.9.21
178 1 1 14/09/2021 12:00:00 PM 106 3743.39 14.9.21 12 am
179 1 1 15/09/2021 8:00:00 AM 106 3743.39 15/09/2021
180 1 1 15/09/2021 12:00:00 PM 106 3743.39 15.9.21 12 am
181 1 1 16/09/2021 8:00:00 AM 106 3743.39 16/09/2021
182 1 1 17/09/2021 8:00:00 AM 106 3743.39 17/09/2021
183 1 2 17/09/2021 4:00:00 PM 212 7486.78
184 5 3 18/09/2021 8:00:00 AM 1505 53149.07 18/09/2021
185 8 3 18/09/2021 12:00:00 PM 2570 90759.55
186 2 2 19/09/2021 8:00:00 AM 403 14231.94
187 2 1 19/09/2021 12:00:00 PM 212 7486.78
188 2 1 20/09/2021 8:00:00 AM 212 7486.78 20/09/2021
189 2 1.5 21/09/2021 8:00:00 AM 312 11018.28 21/09/2021
190 2 1.5 22/09/2021 8:00:00 AM 312 11018.28 22/09/2021
191 1 1 23/09/2021 8:00:00 AM 106 3743.39 23/09/2021
192 1 0.5 23/09/2021 12:00:00 PM 54 1907.01 23.9.21 12pm
193 1 1.5 24/09/2021 8:00:00 AM 157 5544.45 24/09/2021
194 1 2 24/09/2021 4:00:00 PM 204 7204.26
195 1 2 25/09/2021 8:00:00 AM 204 7204.26
196 2 2 26/09/2021 8:00:00 AM 394 13914.11
197 2 1 26/09/2021 12:00:00 PM 212 7486.78
198 2 0.6 27/09/2021 8:00:00 AM 130 4590.95 27.9.21 8am
199 2 40 28/09/2021 8:00:00 AM 88 3107.72 28/09/2021
200 2 0.4 28/09/2021 8:00:00 AM 88 3107.72 28/09/2021
201 2 0.4 28/09/2021 4:00:00 PM 88 3107.72
202 1 1 29/09/2021 8:00:00 AM 106 3743.39 29/09/2021
203 1 1 30/09/2021 8:00:00 AM 106 3743.39 30/09/2021
204 1 1.5 02/10/2021 8:00:00 AM 156 5509.14
205 1 1 02/10/2021 12:00:00 PM 106 3743.39
206 1 1 03/10/2021 8:00:00 AM 106 3743.39
207 1 0.4 15/07/2019 8:30:00 AM 46 1624.49
208 0 0 15/07/2019 8:00:00 PM 0 0 all gates are closed
209 2 0.6 29/07/2019 4:45:00 PM 85 3001.77
210 2 0.6 29/07/2019 5:00:00 PM 133.7 4723.03
211 1 0.6 29/07/2019 5:15:00 PM 65 2295.47
212 1 0.6 30/07/2019 12:01:00 AM 65 2295.47
213 2 0.6 30/07/2019 4:15:00 PM 134 4732.21
214 2 0.8 30/07/2019 5:00:00 PM 185 6533.27 0.80 m av.gate opening passing Q=185 cumec
215 2 0.8 31/07/2019 12:01:00 AM 185 6533.27 2 nos.gate opening 0.80m average,since 30/7/2019 at 5pm,passing discharge 185 cumec
216 2 0.8 31/07/2019 8:00:00 AM 185 6533.27 0.80m average gate opening
217 2 0.8 01/08/2019 12:01:00 AM 185 6533.27 0.80m average gate opening and discharge passed through spillway 185 cumecs
218 2 0.8 01/08/2019 8:00:00 AM 184 6497.96
219 2 0.4 01/08/2019 1:30:00 PM 91 3213.66
220 2 0.4 02/08/2019 8:00:00 AM 91 3213.66
221 2 0.4 03/08/2019 12:01:00 AM 91 3213.66
222 2 0.4 04/08/2019 12:01:00 AM 91 3213.66
223 1 0.4 04/08/2019 1:00:00 PM 45.5 1606.83
224 1 0.4 05/08/2019 12:01:00 AM 45.5 1606.83
225 1 0.4 05/08/2019 4:00:00 PM 45.4 1603.3
226 1 0.4 06/08/2019 12:01:00 AM 45.4 1603.3
227 1 0.4 07/08/2019 12:01:00 AM 45.4 1603.3
228 1 0.4 07/08/2019 12:01:00 AM 45.4 1603.3
229 1 0.4 08/08/2019 12:01:00 AM 45.4 1603.3
230 1 0.4 08/08/2019 5:00:00 AM 45.4 1603.3
231 3 0.72 08/08/2019 5:00:00 PM 272 9605.68 av. gate opening 0.722m
232 3 0.9 08/08/2019 6:00:00 PM 320 11300.8
233 3 0.86 09/08/2019 12:01:00 AM 320 11300.8
234 8 2.25 09/08/2019 1:30:00 PM 2200 77693
235 8 2.25 10/08/2019 12:13:09 AM 2200 77693
236 3 1 10/08/2019 11:00:00 AM 344 12148.36
237 2 1 10/08/2019 1:00:00 PM 229.6 8108.32
238 2 1 11/08/2019 6:45:00 AM 229.6 8108.32
239 2 1 11/08/2019 6:30:00 AM 229.6 8108.32
240 2 1 12/08/2019 12:03:00 AM 229.6 8108.32
241 2 0.5 12/08/2019 8:00:00 AM 129 4555.63
242 2 0.05 13/08/2019 12:03:00 AM 129 4555.63
243 0 0 13/08/2019 8:00:00 AM 0 0 All gates closed at 10.00am
244 2 1 14/08/2019 11:00:00 AM 195 6886.42
245 2 1 14/08/2019 2:00:00 PM 240 8475.6
246 5 1.4 14/08/2019 7:00:00 PM 837 29558.65
247 5 1.4 15/08/2019 4:45:00 AM 837 29558.65
248 11 3.16 15/08/2019 9:00:00 AM 4292 151571.98
249 11 4.36 15/08/2019 3:30:00 PM 6087 214962.4
250 3 2 16/08/2019 7:00:00 AM 557 19670.45
251 3 2 17/08/2019 12:12:00 AM 557 19670.45
252 2 1 17/08/2019 8:00:00 AM 230 8122.45
253 2 0.5 18/08/2019 8:00:00 AM 122 4308.43
254 3 1.5 20/08/2019 12:01:00 AM 517 18257.85
255 2 2 17/08/2019 12:00:00 PM 151 5332.56
256 2 0.7 18/08/2019 12:35:00 AM 151 5332.56
257 2 1 18/08/2019 5:00:00 PM 215 7592.72
258 2 1 19/08/2019 12:22:00 AM 215 7592.72
259 3 1.5 19/08/2019 5:00:00 AM 517 18257.85
260 2 1.5 20/08/2019 8:00:00 AM 340 12007.1
261 2 0.75 20/08/2019 12:00:00 PM 172 6074.18
262 2 0.75 21/08/2019 8:30:00 AM 172 6074.18
263 1 0.75 21/08/2019 12:10:00 PM 93 3284.29
264 1 0.2 21/08/2019 4:00:00 PM 24 847.56
265 1 0.2 22/08/2019 12:01:00 AM 24 847.56 gate opening since 21/8/2019 at 4pm
266 2 0.5 22/08/2019 5:30:00 PM 110 3884.65
267 2 0.5 23/08/2019 12:01:00 AM 110 3884.65
268 1 0.5 23/08/2019 6:00:00 AM 61 2154.21
269 2 0.5 23/08/2019 8:00:00 PM 110 3884.65
270 2 0.5 24/08/2019 12:05:05 AM 110 3884.65
271 2 0.5 25/08/2019 12:01:00 AM 110 3884.65
272 2 0.5 25/08/2019 8:00:00 AM 110 3884.65
273 2 1 25/08/2019 5:00:00 PM 220 7769.3
274 2 1 26/08/2019 12:06:00 AM 220 7769.3
275 3 1 27/08/2019 12:02:00 AM 330 11653.95
276 4 697 27/08/2019 10:00:00 AM 1.5 52.97
277 4 1.5 28/08/2019 12:01:00 AM 697 24614.55
278 4 1.5 28/08/2019 8:00:00 AM 686 24226.09
279 3 1 28/08/2019 11:00:00 AM 348 12289.62
280 1 0.8 29/08/2019 10:00:00 AM 91 3213.66
281 3 1 29/08/2019 12:01:00 AM 348 12289.62
282 1 0.8 29/08/2019 8:00:00 PM 91 3213.66
283 1 0.4 30/08/2019 12:00:00 PM 45 1589.17
284 1 0.45 31/08/2019 12:01:00 AM 45 1589.17
285 1 0.4 31/08/2019 11:30:00 AM 48 1695.12
286 1 0.4 01/09/2019 12:01:00 AM 48 1695.12
287 1 0.2 01/09/2019 12:00:00 PM 24 847.56
288 1 1 01/09/2019 5:45:00 PM 126 4449.69
289 3 1.15 03/09/2019 12:02:00 AM 444 15679.86
290 1 1 02/09/2019 7:00:00 AM 126 4449.69
291 2 1.25 02/09/2019 8:00:00 AM 316 11159.54
292 2 1.15 04/09/2019 12:00:00 PM 127 4485.01
293 3 1.15 02/09/2019 2:00:00 PM 444 15679.86
294 3 1.15 04/09/2019 8:00:00 AM 420 14832.3
295 3 1.15 05/09/2019 11:00:00 AM 413 14585.09
296 3 1.15 06/09/2019 12:01:00 AM 413 14585.09 gate opening since 5/9/2019at 11:00am
297 3 1.15 06/09/2019 12:40:00 PM 420 14832.3
298 3 1.4 06/09/2019 7:00:00 PM 510 18010.65
299 3 1.4 07/09/2019 3:13:00 AM 510 18010.65
300 3 1.14 07/09/2019 12:05:00 PM 510 18010.65
301 3 1.4 08/09/2019 8:00:00 AM 495 17480.92
302 3 1.4 08/09/2019 7:30:00 PM 510 18010.65
303 8 3.18 09/09/2019 11:50:00 AM 2950 104179.25
304 8 3.88 09/09/2019 6:00:00 PM 3987 140800.9
305 7 2.8 11/09/2019 6:00:00 AM 1900 67098.5
306 7 7 11/09/2019 8:00:00 AM 1453 51312.69
307 6 2 12/09/2019 4:00:00 AM 1295 45732.92
308 7 2.5 13/09/2019 12:00:00 PM 1970 69570.55
309 8 2.5 12/09/2019 8:00:00 PM 2673 94396.99
310 8 2.5 13/09/2019 3:00:00 AM 2673 94396.99
311 11 5.4 14/09/2019 12:00:00 PM 6900 243673.5
312 6 1.83 13/09/2019 4:00:00 PM 2015 71159.72
313 6 1.83 14/09/2019 12:01:00 AM 2015 71159.72
314 5 2 15/09/2019 9:00:00 AM 1060 37433.9
315 4 2 15/09/2019 1:14:00 PM 847 29911.8
316 4 2 16/09/2019 12:01:00 AM 847 29911.8
317 6 2 16/09/2019 1:00:00 PM 1330 46968.95
318 6 2 16/09/2019 8:00:00 PM 1280 45203.2
319 6 2 17/09/2019 12:01:00 AM 1280 45203.2
320 4 0.5 17/09/2019 8:00:00 AM 274.1 9679.84
321 5 2 17/09/2019 8:00:00 AM 1038 36656.97
322 5 2 18/09/2019 12:01:00 AM 1038 36656.97
323 7 3.14 20/09/2019 8:00:00 AM 2324 82072.06
324 2 0.5 20/09/2019 12:01:00 AM 111 3919.96
325 2 1 18/09/2019 10:30:00 AM 207 7310.2
326 2 0.5 19/09/2019 8:00:00 AM 111 3919.96
327 2 1 20/09/2019 8:00:00 AM 227 8016.5
328 4 3 20/09/2019 4:00:00 PM 1492 52689.98
329 3 3 20/09/2019 9:00:00 PM 894 31571.61
330 3 3 21/09/2019 12:01:00 AM 894 31571.61
331 3 3 21/09/2019 9:00:00 AM 903 31889.44
332 3 3 22/09/2019 10:00:00 AM 863 30476.84
333 3 3 24/09/2019 8:00:00 AM 960 33902.4
334 3 3 25/09/2019 12:06:00 AM 960 33902.4
335 3 3 22/09/2019 12:01:00 AM 903 31889.44 gate opening since 21/9/2019at10pm
336 2 1 22/09/2019 4:00:00 PM 210 7416.15
337 2 1 28/09/2019 4:20:00 AM 230 8122.45
338 2 0.5 26/09/2019 11:50:00 AM 183 6462.64
339 3 2 28/09/2019 10:30:00 AM 682 24084.83
340 2 1 23/09/2019 1:13:00 AM 210 7416.15
341 2 1.5 23/09/2019 8:00:00 AM 330 11653.95
342 3 2 24/09/2019 12:01:00 AM 663 23413.84
343 2 3 25/09/2019 8:00:00 AM 608 21471.52
344 2 1 26/09/2019 12:01:00 AM 214 7557.41
345 2 0.5 27/09/2019 12:01:00 AM 183 6462.64
346 2 0.5 27/09/2019 8:00:00 AM 183 6462.64
347 2 1 27/09/2019 8:00:00 PM 230 8122.45
348 3 2 29/09/2019 2:10:00 AM 682 24084.83
349 2 2.5 29/09/2019 9:00:00 AM 534 18858.21
350 2 2 30/09/2019 9:00:00 AM 435 15362.02
351 2 2.5 30/09/2019 12:01:00 AM 534 18858.21
352 4 2 01/10/2019 8:00:00 AM 898 31712.87
353 1 0.8 14/10/2019 12:00:00 PM 100 3531.5
354 3 1.5 02/10/2019 10:00:00 AM 465 16421.47
355 2 1 02/10/2019 4:00:00 PM 214 7557.41
356 1 1 14/10/2019 10:00:00 AM 112 3955.28
357 2 1 03/10/2019 12:01:00 AM 214 7557.41
358 0 0 03/10/2019 9:30:00 AM 0 0
359 1 0.5 08/10/2019 4:00:00 PM 61 2154.21
360 1 0.6 12/10/2019 11:00:00 AM 71 2507.36
361 1 1 09/10/2019 8:00:00 AM 129 4555.63
362 1 1 09/10/2019 10:00:00 AM 129 4555.63
363 1 1 10/10/2019 3:00:00 AM 129 4555.63
364 1 0.5 07/10/2019 8:00:00 AM 61 2154.21
365 1 1 11/10/2019 8:00:00 AM 128 4520.32
366 1 0.6 13/10/2019 11:00:00 AM 78 2754.57
367 1 0.5 08/10/2019 10:00:00 AM 33 1165.39
368 1 0.6 11/10/2019 12:01:00 PM 71 2507.36
369 1 0.5 09/10/2019 12:01:00 AM 61 2154.21
370 1 0.8 15/10/2019 8:00:00 AM 100 3531.5
371 1 0.2 30/06/2020 12:30:00 PM 21 741.62 Gate opened since Yesterday 12:30 PM
372 1 0.2 01/07/2020 11:30:00 AM 21 741.62 Gate opened since 29th June 2020 at 12:30 pm.
373 1 0.5 02/07/2020 12:02:00 PM 51 1801.06 Gate opening raised from 0.20 M to 0.50 M on 1st july 2020 at 6 pm and water level 391.95 m
374 1 0.5 03/07/2020 12:00:05 PM 51 1801.06
375 1 0.5 04/07/2020 12:15:00 PM 51 1801.06
376 1 0.5 05/07/2020 12:00:00 PM 51 1801.06
377 1 0.75 05/07/2020 8:00:00 PM 70 2472.05
378 1 0.75 06/07/2020 12:42:00 PM 70 2472.05
379 1 0.75 09/07/2020 4:00:00 PM 63 2224.84
380 1 0.75 10/07/2020 4:00:00 PM 55 1942.32
381 1 0.75 11/07/2020 8:00:00 AM 55 1942.32
382 1 50 11/07/2020 8:00:00 PM 35 1236.02
383 1 0.5 12/07/2020 8:00:00 AM 35 1236.02
384 1 0.5 17/07/2020 12:34:00 PM 35 1236.02
385 1 0.5 18/07/2020 8:00:00 AM 32 1130.08
386 1 0.5 19/07/2020 8:00:00 AM 32 1130.08
387 1 0.5 20/07/2020 12:30:00 PM 32 1130.08
388 1 0.5 21/07/2020 10:11:00 AM 32 1130.08
389 1 0.5 22/07/2020 10:00:00 AM 32 1130.08
390 1 0.5 23/07/2020 10:00:00 AM 27 953.5
391 1 0.5 24/07/2020 9:00:00 AM 27 953.5
392 1 0.3 26/07/2020 8:00:00 AM 13 459.09
393 1 0.3 27/07/2020 8:03:00 AM 13 459.09
Powered by © Water Resources Department (MP). All Rights Reserved.